PWSweather.com
Personal Weather Stations
Station Observations
SEVNO44
Sevno, PrimskovoSI 1276

SevnoPrimskovoSI 1276

Lat: 45.9796285, Lon: 14.924044999999978

Elevation: 1706.0368

Station Type: WS-2307

Latest ConditionsUpdated 6:05:00 PM GMT+01:01 Monday, Jan 21, 2019
Currently Today's Max Today's Min Today's Average
Temperature 29.1°F-1.6°C 30.7°F-0.7°C 28.8°F-1.8°C 29.9°F-1.2°C
Dew Point 25.5°F-3.6°C 27.0°F-2.8°C 25.1°F-3.8°C 26.0°F-3.3°C
Winds 1.1 mph SE1.8 kmh SE 2.1 mph -3.4 kmh - - 0.5 mph 0.8 kmh
Wind Gusts 6.9 mph11.1 kmh 6.9 mph11.1 kmh - -
Humidity 86% 87% 84% 85%
Pressure 30.03 in1016.9 mb 30.09 in1019.0 mb 30.02 in1016.6 mb -
Hour Temp Dew Point Humidity Winds Wind Gusts Pressure Precip Precip Rate Daily Precip Total
06:05 PM 29.1°F-1.6°C 25.5°F-3.6°C 86% 1.1 mph SE1.8 kmh SE 6.9 mph11.1 kmh 30.03 in1016.9 mb 0.00 in0.0 mm 0.00 in0.0 mm 0.00 in0.0 mm
06:00 PM 29.1°F-1.6°C 25.5°F-3.6°C 86% 0.3 mph N0.5 kmh N 6.9 mph11.1 kmh 30.03 in1016.9 mb 0.00 in0.0 mm 0.00 in0.0 mm 0.00 in0.0 mm
05:55 PM 29.3°F-1.5°C 25.6°F-3.6°C 86% 1.4 mph NE2.3 kmh NE 6.9 mph11.1 kmh 30.03 in1016.9 mb 0.00 in0.0 mm 0.00 in0.0 mm 0.00 in0.0 mm
05:50 PM 29.3°F-1.5°C 25.6°F-3.6°C 86% 1.4 mph NE2.3 kmh NE 6.9 mph11.1 kmh 30.02 in1016.6 mb 0.00 in0.0 mm 0.00 in0.0 mm 0.00 in0.0 mm
05:45 PM 29.5°F-1.4°C 25.8°F-3.4°C 86% 0.4 mph SE0.6 kmh SE 6.9 mph11.1 kmh 30.03 in1016.9 mb 0.00 in0.0 mm 0.00 in0.0 mm 0.00 in0.0 mm
05:40 PM 29.5°F-1.4°C 25.8°F-3.4°C 86% 0.6 mph E1.0 kmh E 6.9 mph11.1 kmh 30.03 in1016.9 mb 0.00 in0.0 mm 0.00 in0.0 mm 0.00 in0.0 mm
05:35 PM 29.5°F-1.4°C 25.8°F-3.4°C 86% 0.5 mph E0.8 kmh E 6.9 mph11.1 kmh 30.03 in1016.9 mb 0.00 in0.0 mm 0.00 in0.0 mm 0.00 in0.0 mm
05:30 PM 29.5°F-1.4°C 25.5°F-3.6°C 85% 0.5 mph SE0.8 kmh SE 6.9 mph11.1 kmh 30.03 in1016.9 mb 0.00 in0.0 mm 0.00 in0.0 mm 0.00 in0.0 mm
05:25 PM 29.7°F-1.3°C 25.7°F-3.5°C 85% 0.9 mph SE1.4 kmh SE 6.9 mph11.1 kmh 30.03 in1016.9 mb 0.00 in0.0 mm 0.00 in0.0 mm 0.00 in0.0 mm
05:20 PM 29.7°F-1.3°C 25.7°F-3.5°C 85% 0.7 mph SE1.1 kmh SE 6.9 mph11.1 kmh 30.03 in1016.9 mb 0.00 in0.0 mm 0.00 in0.0 mm 0.00 in0.0 mm
05:15 PM 29.8°F-1.2°C 25.9°F-3.4°C 85% 0.2 mph E0.3 kmh E 6.9 mph11.1 kmh 30.03 in1016.9 mb 0.00 in0.0 mm 0.00 in0.0 mm 0.00 in0.0 mm
05:10 PM 29.8°F-1.2°C 25.9°F-3.4°C 85% 0.2 mph E0.3 kmh E 6.9 mph11.1 kmh 30.03 in1016.9 mb 0.00 in0.0 mm 0.00 in0.0 mm 0.00 in0.0 mm
05:05 PM 29.8°F-1.2°C 25.9°F-3.4°C 85% 0.2 mph SE0.3 kmh SE 1.6 mph2.6 kmh 30.03 in1016.9 mb 0.00 in0.0 mm 0.00 in0.0 mm 0.00 in0.0 mm
05:00 PM 29.8°F-1.2°C 25.9°F-3.4°C 85% 0.2 mph SE0.3 kmh SE 1.6 mph2.6 kmh 30.03 in1016.9 mb 0.00 in0.0 mm 0.00 in0.0 mm 0.00 in0.0 mm
04:55 PM 29.8°F-1.2°C 25.9°F-3.4°C 85% 0.1 mph N0.2 kmh N 6.9 mph11.1 kmh 30.03 in1016.9 mb 0.00 in0.0 mm 0.00 in0.0 mm 0.00 in0.0 mm
04:50 PM 29.8°F-1.2°C 25.9°F-3.4°C 85% 0.2 mph NNW0.3 kmh NNW 6.9 mph11.1 kmh 30.03 in1016.9 mb 0.00 in0.0 mm 0.00 in0.0 mm 0.00 in0.0 mm
04:45 PM 30.0°F-1.1°C 26.1°F-3.3°C 85% 0.3 mph NNW0.5 kmh NNW 6.9 mph11.1 kmh 30.03 in1016.9 mb 0.00 in0.0 mm 0.00 in0.0 mm 0.00 in0.0 mm
04:40 PM 30.0°F-1.1°C 26.1°F-3.3°C 85% 0.4 mph NNW0.6 kmh NNW 6.9 mph11.1 kmh 30.03 in1016.9 mb 0.00 in0.0 mm 0.00 in0.0 mm 0.00 in0.0 mm
04:35 PM 30.0°F-1.1°C 26.1°F-3.3°C 85% 0.4 mph N0.6 kmh N 6.9 mph11.1 kmh 30.03 in1016.9 mb 0.00 in0.0 mm 0.00 in0.0 mm 0.00 in0.0 mm
04:30 PM 30.0°F-1.1°C 26.1°F-3.3°C 85% 0.3 mph N0.5 kmh N 6.9 mph11.1 kmh 30.03 in1016.9 mb 0.00 in0.0 mm 0.00 in0.0 mm 0.00 in0.0 mm
04:25 PM 30.0°F-1.1°C 26.3°F-3.2°C 86% 0.7 mph SE1.1 kmh SE 6.9 mph11.1 kmh 30.03 in1016.9 mb 0.00 in0.0 mm 0.00 in0.0 mm 0.00 in0.0 mm
04:20 PM 30.0°F-1.1°C 26.3°F-3.2°C 86% 0.9 mph SE1.4 kmh SE 4.0 mph6.4 kmh 30.03 in1016.9 mb 0.00 in0.0 mm 0.00 in0.0 mm 0.00 in0.0 mm
04:15 PM 30.0°F-1.1°C 26.1°F-3.3°C 85% 1.2 mph NNE1.9 kmh NNE 6.9 mph11.1 kmh 30.03 in1016.9 mb 0.00 in0.0 mm 0.00 in0.0 mm 0.00 in0.0 mm
04:10 PM 30.0°F-1.1°C 26.3°F-3.2°C 86% 1.2 mph N1.9 kmh N 6.9 mph11.1 kmh 30.04 in1017.3 mb 0.00 in0.0 mm 0.00 in0.0 mm 0.00 in0.0 mm
04:05 PM 30.2°F-1.0°C 26.2°F-3.2°C 85% 0.9 mph SE1.4 kmh SE 6.9 mph11.1 kmh 30.03 in1016.9 mb 0.00 in0.0 mm 0.00 in0.0 mm 0.00 in0.0 mm
04:00 PM 30.2°F-1.0°C 26.2°F-3.2°C 85% 0.7 mph SE1.1 kmh SE 2.5 mph4.0 kmh 30.03 in1016.9 mb 0.00 in0.0 mm 0.00 in0.0 mm 0.00 in0.0 mm
03:55 PM 30.2°F-1.0°C 26.2°F-3.2°C 85% 0.4 mph SE0.6 kmh SE 2.9 mph4.7 kmh 30.03 in1016.9 mb 0.00 in0.0 mm 0.00 in0.0 mm 0.00 in0.0 mm
03:50 PM 30.4°F-0.9°C 26.4°F-3.1°C 85% 0.4 mph SE0.6 kmh SE 2.9 mph4.7 kmh 30.03 in1016.9 mb 0.00 in0.0 mm 0.00 in0.0 mm 0.00 in0.0 mm
03:45 PM 30.4°F-0.9°C 26.4°F-3.1°C 85% 0.4 mph SE0.6 kmh SE 6.9 mph11.1 kmh 30.03 in1016.9 mb 0.00 in0.0 mm 0.00 in0.0 mm 0.00 in0.0 mm
03:40 PM 30.4°F-0.9°C 26.4°F-3.1°C 85% 0.3 mph ESE0.5 kmh ESE 6.9 mph11.1 kmh 30.03 in1016.9 mb 0.00 in0.0 mm 0.00 in0.0 mm 0.00 in0.0 mm
03:35 PM 30.4°F-0.9°C 26.4°F-3.1°C 85% 0.1 mph SE0.2 kmh SE 2.0 mph3.2 kmh 30.03 in1016.9 mb 0.00 in0.0 mm 0.00 in0.0 mm 0.00 in0.0 mm
03:30 PM 30.4°F-0.9°C 26.4°F-3.1°C 85% 0.2 mph NE0.3 kmh NE 6.9 mph11.1 kmh 30.04 in1017.3 mb 0.00 in0.0 mm 0.00 in0.0 mm 0.00 in0.0 mm
03:25 PM 30.4°F-0.9°C 26.4°F-3.1°C 85% 0.1 mph N0.2 kmh N 6.9 mph11.1 kmh 30.03 in1016.9 mb 0.00 in0.0 mm 0.00 in0.0 mm 0.00 in0.0 mm
03:20 PM 30.6°F-0.8°C 26.6°F-3.0°C 85% Calm Calm 0.9 mph1.4 kmh 30.03 in1016.9 mb 0.00 in0.0 mm 0.00 in0.0 mm 0.00 in0.0 mm
03:15 PM 30.6°F-0.8°C 26.6°F-3.0°C 85% 0.7 mph N1.1 kmh N 6.9 mph11.1 kmh 30.03 in1016.9 mb 0.00 in0.0 mm 0.00 in0.0 mm 0.00 in0.0 mm
03:10 PM 30.6°F-0.8°C 26.6°F-3.0°C 85% 0.9 mph N1.4 kmh N 6.9 mph11.1 kmh 30.03 in1016.9 mb 0.00 in0.0 mm 0.00 in0.0 mm 0.00 in0.0 mm
03:05 PM 30.6°F-0.8°C 26.6°F-3.0°C 85% 0.3 mph ESE0.5 kmh ESE 6.9 mph11.1 kmh 30.03 in1016.9 mb 0.00 in0.0 mm 0.00 in0.0 mm 0.00 in0.0 mm
03:00 PM 30.7°F-0.7°C 26.8°F-2.9°C 85% 0.3 mph SE0.5 kmh SE 2.9 mph4.7 kmh 30.03 in1016.9 mb 0.00 in0.0 mm 0.00 in0.0 mm 0.00 in0.0 mm
02:55 PM 30.7°F-0.7°C 26.8°F-2.9°C 85% 0.7 mph SE1.1 kmh SE 3.1 mph5.0 kmh 30.03 in1016.9 mb 0.00 in0.0 mm 0.00 in0.0 mm 0.00 in0.0 mm
02:50 PM 30.7°F-0.7°C 26.8°F-2.9°C 85% 0.7 mph SE1.1 kmh SE 3.8 mph6.1 kmh 30.03 in1016.9 mb 0.00 in0.0 mm 0.00 in0.0 mm 0.00 in0.0 mm
02:45 PM 30.7°F-0.7°C 26.8°F-2.9°C 85% 0.4 mph SE0.6 kmh SE 3.8 mph6.1 kmh 30.03 in1016.9 mb 0.00 in0.0 mm 0.00 in0.0 mm 0.00 in0.0 mm
02:40 PM 30.7°F-0.7°C 26.8°F-2.9°C 85% 0.3 mph ESE0.5 kmh ESE 6.9 mph11.1 kmh 30.03 in1016.9 mb 0.00 in0.0 mm 0.00 in0.0 mm 0.00 in0.0 mm
02:35 PM 30.7°F-0.7°C 26.8°F-2.9°C 85% 0.9 mph SE1.4 kmh SE 6.9 mph11.1 kmh 30.03 in1016.9 mb 0.00 in0.0 mm 0.00 in0.0 mm 0.00 in0.0 mm
02:30 PM 30.7°F-0.7°C 26.8°F-2.9°C 85% 1.1 mph SE1.8 kmh SE 6.9 mph11.1 kmh 30.03 in1016.9 mb 0.00 in0.0 mm 0.00 in0.0 mm 0.00 in0.0 mm
02:25 PM 30.7°F-0.7°C 26.8°F-2.9°C 85% 0.6 mph SE1.0 kmh SE 6.9 mph11.1 kmh 30.04 in1017.3 mb 0.00 in0.0 mm 0.00 in0.0 mm 0.00 in0.0 mm
02:20 PM 30.7°F-0.7°C 26.8°F-2.9°C 85% 0.5 mph SE0.8 kmh SE 2.2 mph3.5 kmh 30.04 in1017.3 mb 0.00 in0.0 mm 0.00 in0.0 mm 0.00 in0.0 mm
02:15 PM 30.7°F-0.7°C 26.8°F-2.9°C 85% 0.9 mph SE1.4 kmh SE 6.9 mph11.1 kmh 30.04 in1017.3 mb 0.00 in0.0 mm 0.00 in0.0 mm 0.00 in0.0 mm
02:10 PM 30.7°F-0.7°C 27.0°F-2.8°C 86% 1.6 mph SE2.6 kmh SE 6.9 mph11.1 kmh 30.04 in1017.3 mb 0.00 in0.0 mm 0.00 in0.0 mm 0.00 in0.0 mm
02:05 PM 30.7°F-0.7°C 27.0°F-2.8°C 86% 1.0 mph SE1.6 kmh SE 6.9 mph11.1 kmh 30.04 in1017.3 mb 0.00 in0.0 mm 0.00 in0.0 mm 0.00 in0.0 mm
02:00 PM 30.7°F-0.7°C 27.0°F-2.8°C 86% 0.3 mph N0.5 kmh N 6.9 mph11.1 kmh 30.04 in1017.3 mb 0.00 in0.0 mm 0.00 in0.0 mm 0.00 in0.0 mm
01:55 PM 30.7°F-0.7°C 27.0°F-2.8°C 86% 0.7 mph E1.1 kmh E 6.9 mph11.1 kmh 30.04 in1017.3 mb 0.00 in0.0 mm 0.00 in0.0 mm 0.00 in0.0 mm
01:50 PM 30.7°F-0.7°C 27.0°F-2.8°C 86% 1.0 mph SE1.6 kmh SE 3.8 mph6.1 kmh 30.04 in1017.3 mb 0.00 in0.0 mm 0.00 in0.0 mm 0.00 in0.0 mm
01:45 PM 30.7°F-0.7°C 27.0°F-2.8°C 86% 0.8 mph SE1.3 kmh SE 6.9 mph11.1 kmh 30.04 in1017.3 mb 0.00 in0.0 mm 0.00 in0.0 mm 0.00 in0.0 mm
01:40 PM 30.7°F-0.7°C 27.0°F-2.8°C 86% 0.8 mph NW1.3 kmh NW 6.9 mph11.1 kmh 30.04 in1017.3 mb 0.00 in0.0 mm 0.00 in0.0 mm 0.00 in0.0 mm
01:35 PM 30.7°F-0.7°C 27.0°F-2.8°C 86% 1.0 mph NNW1.6 kmh NNW 6.9 mph11.1 kmh 30.04 in1017.3 mb 0.00 in0.0 mm 0.00 in0.0 mm 0.00 in0.0 mm
01:30 PM 30.7°F-0.7°C 27.0°F-2.8°C 86% 0.7 mph NNE1.1 kmh NNE 2.9 mph4.7 kmh 30.04 in1017.3 mb 0.00 in0.0 mm 0.00 in0.0 mm 0.00 in0.0 mm
01:25 PM 30.6°F-0.8°C 26.9°F-2.8°C 86% 0.6 mph NNE1.0 kmh NNE 2.9 mph4.7 kmh 30.05 in1017.6 mb 0.00 in0.0 mm 0.00 in0.0 mm 0.00 in0.0 mm
01:20 PM 30.6°F-0.8°C 26.9°F-2.8°C 86% 0.4 mph NNE0.6 kmh NNE 2.5 mph4.0 kmh 30.05 in1017.6 mb 0.00 in0.0 mm 0.00 in0.0 mm 0.00 in0.0 mm
01:15 PM 30.6°F-0.8°C 26.9°F-2.8°C 86% 0.3 mph NNE0.5 kmh NNE 2.0 mph3.2 kmh 30.05 in1017.6 mb 0.00 in0.0 mm 0.00 in0.0 mm 0.00 in0.0 mm
01:10 PM 30.4°F-0.9°C 26.7°F-2.9°C 86% 0.8 mph NNE1.3 kmh NNE 6.9 mph11.1 kmh 30.06 in1017.9 mb 0.00 in0.0 mm 0.00 in0.0 mm 0.00 in0.0 mm
01:05 PM 30.4°F-0.9°C 26.7°F-2.9°C 86% 0.9 mph NNE1.4 kmh NNE 6.9 mph11.1 kmh 30.05 in1017.6 mb 0.00 in0.0 mm 0.00 in0.0 mm 0.00 in0.0 mm
01:00 PM 30.4°F-0.9°C 26.7°F-2.9°C 86% 0.4 mph NNE0.6 kmh NNE 2.7 mph4.3 kmh 30.05 in1017.6 mb 0.00 in0.0 mm 0.00 in0.0 mm 0.00 in0.0 mm
12:55 PM 30.4°F-0.9°C 26.7°F-2.9°C 86% 0.4 mph NNE0.6 kmh NNE 2.0 mph3.2 kmh 30.05 in1017.6 mb 0.00 in0.0 mm 0.00 in0.0 mm 0.00 in0.0 mm
12:50 PM 30.4°F-0.9°C 26.7°F-2.9°C 86% 0.6 mph NNE1.0 kmh NNE 6.9 mph11.1 kmh 30.06 in1017.9 mb 0.00 in0.0 mm 0.00 in0.0 mm 0.00 in0.0 mm
12:45 PM 30.4°F-0.9°C 26.7°F-2.9°C 86% 0.9 mph N1.4 kmh N 6.9 mph11.1 kmh 30.06 in1017.9 mb 0.00 in0.0 mm 0.00 in0.0 mm 0.00 in0.0 mm
12:40 PM 30.4°F-0.9°C 26.7°F-2.9°C 86% 0.9 mph N1.4 kmh N 6.9 mph11.1 kmh 30.06 in1017.9 mb 0.00 in0.0 mm 0.00 in0.0 mm 0.00 in0.0 mm
12:35 PM 30.4°F-0.9°C 26.7°F-2.9°C 86% 0.6 mph N1.0 kmh N 6.9 mph11.1 kmh 30.06 in1017.9 mb 0.00 in0.0 mm 0.00 in0.0 mm 0.00 in0.0 mm
12:30 PM 30.4°F-0.9°C 26.7°F-2.9°C 86% 0.5 mph N0.8 kmh N 6.9 mph11.1 kmh 30.06 in1017.9 mb 0.00 in0.0 mm 0.00 in0.0 mm 0.00 in0.0 mm
12:25 PM 30.2°F-1.0°C 26.5°F-3.1°C 86% 0.9 mph NNE1.4 kmh NNE 6.9 mph11.1 kmh 30.06 in1017.9 mb 0.00 in0.0 mm 0.00 in0.0 mm 0.00 in0.0 mm
12:20 PM 30.2°F-1.0°C 26.5°F-3.1°C 86% 1.3 mph NNE2.1 kmh NNE 6.9 mph11.1 kmh 30.06 in1017.9 mb 0.00 in0.0 mm 0.00 in0.0 mm 0.00 in0.0 mm
12:15 PM 30.2°F-1.0°C 26.5°F-3.1°C 86% 1.4 mph NNE2.3 kmh NNE 6.9 mph11.1 kmh 30.07 in1018.3 mb 0.00 in0.0 mm 0.00 in0.0 mm 0.00 in0.0 mm
12:10 PM 30.2°F-1.0°C 26.5°F-3.1°C 86% 1.2 mph NNE1.9 kmh NNE 3.4 mph5.5 kmh 30.07 in1018.3 mb 0.00 in0.0 mm 0.00 in0.0 mm 0.00 in0.0 mm
12:05 PM 30.0°F-1.1°C 26.3°F-3.2°C 86% 1.0 mph NNE1.6 kmh NNE 6.9 mph11.1 kmh 30.07 in1018.3 mb 0.00 in0.0 mm 0.00 in0.0 mm 0.00 in0.0 mm
12:00 PM 30.0°F-1.1°C 26.3°F-3.2°C 86% 0.8 mph N1.3 kmh N 6.9 mph11.1 kmh 30.07 in1018.3 mb 0.00 in0.0 mm 0.00 in0.0 mm 0.00 in0.0 mm
11:55 AM 30.2°F-1.0°C 26.5°F-3.1°C 86% 1.0 mph NNE1.6 kmh NNE 6.9 mph11.1 kmh 30.07 in1018.3 mb 0.00 in0.0 mm 0.00 in0.0 mm 0.00 in0.0 mm
11:50 AM 30.0°F-1.1°C 26.3°F-3.2°C 86% 0.9 mph N1.4 kmh N 6.9 mph11.1 kmh 30.07 in1018.3 mb 0.00 in0.0 mm 0.00 in0.0 mm 0.00 in0.0 mm
11:45 AM 30.0°F-1.1°C 26.3°F-3.2°C 86% 0.5 mph N0.8 kmh N 6.9 mph11.1 kmh 30.07 in1018.3 mb 0.00 in0.0 mm 0.00 in0.0 mm 0.00 in0.0 mm
11:40 AM 30.0°F-1.1°C 26.3°F-3.2°C 86% 0.3 mph NNE0.5 kmh NNE 2.0 mph3.2 kmh 30.07 in1018.3 mb 0.00 in0.0 mm 0.00 in0.0 mm 0.00 in0.0 mm
11:35 AM 30.0°F-1.1°C 26.3°F-3.2°C 86% 0.8 mph NNE1.3 kmh NNE 4.9 mph7.9 kmh 30.07 in1018.3 mb 0.00 in0.0 mm 0.00 in0.0 mm 0.00 in0.0 mm
11:30 AM 30.0°F-1.1°C 26.3°F-3.2°C 86% 1.1 mph NNE1.8 kmh NNE 4.9 mph7.9 kmh 30.08 in1018.6 mb 0.00 in0.0 mm 0.00 in0.0 mm 0.00 in0.0 mm
11:25 AM 30.0°F-1.1°C 26.3°F-3.2°C 86% 0.7 mph NNE1.1 kmh NNE 3.4 mph5.5 kmh 30.08 in1018.6 mb 0.00 in0.0 mm 0.00 in0.0 mm 0.00 in0.0 mm
11:20 AM 30.0°F-1.1°C 26.3°F-3.2°C 86% 0.5 mph N0.8 kmh N 6.9 mph11.1 kmh 30.08 in1018.6 mb 0.00 in0.0 mm 0.00 in0.0 mm 0.00 in0.0 mm
11:15 AM 30.0°F-1.1°C 26.6°F-3.0°C 86% 0.2 mph N0.3 kmh N 6.9 mph11.1 kmh 30.09 in1019.0 mb 0.00 in0.0 mm 0.00 in0.0 mm 0.00 in0.0 mm
11:10 AM 29.8°F-1.2°C 26.2°F-3.2°C 86% 0.1 mph NNE0.2 kmh NNE 1.3 mph2.1 kmh 30.09 in1019.0 mb 0.00 in0.0 mm 0.00 in0.0 mm 0.00 in0.0 mm
11:05 AM 29.8°F-1.2°C 26.2°F-3.2°C 86% Calm Calm -- 30.09 in1019.0 mb 0.00 in0.0 mm 0.00 in0.0 mm 0.00 in0.0 mm
11:00 AM 29.8°F-1.2°C 26.2°F-3.2°C 86% 0.1 mph NNW0.2 kmh NNW 6.9 mph11.1 kmh 30.09 in1019.0 mb 0.00 in0.0 mm 0.00 in0.0 mm 0.00 in0.0 mm
10:55 AM 29.7°F-1.3°C 26.0°F-3.3°C 86% 0.5 mph N0.8 kmh N 6.9 mph11.1 kmh 30.09 in1019.0 mb 0.00 in0.0 mm 0.00 in0.0 mm 0.00 in0.0 mm
10:50 AM 29.7°F-1.3°C 26.0°F-3.3°C 86% 0.6 mph N1.0 kmh N 6.9 mph11.1 kmh 30.09 in1019.0 mb 0.00 in0.0 mm 0.00 in0.0 mm 0.00 in0.0 mm
10:45 AM 29.5°F-1.4°C 26.1°F-3.3°C 87% 0.3 mph NNE0.5 kmh NNE 2.0 mph3.2 kmh 30.09 in1019.0 mb 0.00 in0.0 mm 0.00 in0.0 mm 0.00 in0.0 mm
10:40 AM 29.5°F-1.4°C 26.1°F-3.3°C 87% 0.1 mph NNE0.2 kmh NNE 1.3 mph2.1 kmh 30.09 in1019.0 mb 0.00 in0.0 mm 0.00 in0.0 mm 0.00 in0.0 mm
10:35 AM 29.5°F-1.4°C 26.1°F-3.3°C 87% 0.2 mph NNE0.3 kmh NNE 1.3 mph2.1 kmh 30.09 in1019.0 mb 0.00 in0.0 mm 0.00 in0.0 mm 0.00 in0.0 mm
10:30 AM 29.3°F-1.5°C 25.9°F-3.4°C 87% 0.3 mph N0.5 kmh N 6.9 mph11.1 kmh 30.09 in1019.0 mb 0.00 in0.0 mm 0.00 in0.0 mm 0.00 in0.0 mm
10:25 AM 29.3°F-1.5°C 25.9°F-3.4°C 87% 0.2 mph NNW0.3 kmh NNW 6.9 mph11.1 kmh 30.09 in1019.0 mb 0.00 in0.0 mm 0.00 in0.0 mm 0.00 in0.0 mm
09:27 AM 28.8°F-1.8°C 25.4°F-3.7°C 87% Calm Calm -- 30.09 in1019.0 mb 0.00 in0.0 mm 0.00 in0.0 mm 0.00 in0.0 mm
08:27 AM 28.8°F-1.8°C 25.1°F-3.8°C 86% Calm Calm -- 30.08 in1018.6 mb 0.00 in0.0 mm 0.00 in0.0 mm 0.00 in0.0 mm
07:27 AM 29.1°F-1.6°C 25.2°F-3.8°C 85% Calm Calm -- 30.07 in1018.3 mb 0.00 in0.0 mm 0.00 in0.0 mm 0.00 in0.0 mm
06:27 AM 29.1°F-1.6°C 25.2°F-3.8°C 85% 0.1 mph N0.2 kmh N 6.8 mph10.9 kmh 30.05 in1017.6 mb 0.00 in0.0 mm 0.00 in0.0 mm 0.00 in0.0 mm
06:25 AM 29.1°F-1.6°C 25.2°F-3.8°C 85% 0.4 mph N0.6 kmh N 6.9 mph11.1 kmh 30.05 in1017.6 mb 0.00 in0.0 mm 0.00 in0.0 mm 0.00 in0.0 mm
06:20 AM 29.1°F-1.6°C 25.2°F-3.8°C 85% 0.2 mph N0.3 kmh N 6.9 mph11.1 kmh 30.05 in1017.6 mb 0.00 in0.0 mm 0.00 in0.0 mm 0.00 in0.0 mm
06:15 AM 29.1°F-1.6°C 25.2°F-3.8°C 85% 0.1 mph NNE0.2 kmh NNE 1.6 mph2.6 kmh 30.05 in1017.6 mb 0.00 in0.0 mm 0.00 in0.0 mm 0.00 in0.0 mm
06:10 AM 29.1°F-1.6°C 25.2°F-3.8°C 85% 0.2 mph N0.3 kmh N 6.9 mph11.1 kmh 30.05 in1017.6 mb 0.00 in0.0 mm 0.00 in0.0 mm 0.00 in0.0 mm
06:05 AM 29.1°F-1.6°C 25.2°F-3.8°C 85% 0.3 mph N0.5 kmh N 6.9 mph11.1 kmh 30.05 in1017.6 mb 0.00 in0.0 mm 0.00 in0.0 mm 0.00 in0.0 mm
06:00 AM 29.1°F-1.6°C 25.2°F-3.8°C 85% 0.2 mph N0.3 kmh N 6.9 mph11.1 kmh 30.05 in1017.6 mb 0.00 in0.0 mm 0.00 in0.0 mm 0.00 in0.0 mm
05:55 AM 29.1°F-1.6°C 25.2°F-3.8°C 85% 0.2 mph N0.3 kmh N 6.9 mph11.1 kmh 30.05 in1017.6 mb 0.00 in0.0 mm 0.00 in0.0 mm 0.00 in0.0 mm
05:50 AM 29.1°F-1.6°C 25.2°F-3.8°C 85% 0.1 mph N0.2 kmh N 6.9 mph11.1 kmh 30.04 in1017.3 mb 0.00 in0.0 mm 0.00 in0.0 mm 0.00 in0.0 mm
05:45 AM 29.3°F-1.5°C 25.4°F-3.7°C 85% 0.2 mph NNE0.3 kmh NNE 1.1 mph1.8 kmh 30.05 in1017.6 mb 0.00 in0.0 mm 0.00 in0.0 mm 0.00 in0.0 mm
05:40 AM 29.3°F-1.5°C 25.4°F-3.7°C 85% 0.2 mph NNE0.3 kmh NNE 1.1 mph1.8 kmh 30.04 in1017.3 mb 0.00 in0.0 mm 0.00 in0.0 mm 0.00 in0.0 mm
05:35 AM 29.1°F-1.6°C 25.2°F-3.8°C 85% 0.1 mph NNE0.2 kmh NNE 1.1 mph1.8 kmh 30.04 in1017.3 mb 0.00 in0.0 mm 0.00 in0.0 mm 0.00 in0.0 mm
05:30 AM 29.3°F-1.5°C 25.4°F-3.7°C 85% 0.2 mph NNE0.3 kmh NNE 1.3 mph2.1 kmh 30.04 in1017.3 mb 0.00 in0.0 mm 0.00 in0.0 mm 0.00 in0.0 mm
05:25 AM 29.3°F-1.5°C 25.4°F-3.7°C 85% 0.1 mph NNE0.2 kmh NNE 1.3 mph2.1 kmh 30.04 in1017.3 mb 0.00 in0.0 mm 0.00 in0.0 mm 0.00 in0.0 mm
05:20 AM 29.3°F-1.5°C 25.4°F-3.7°C 85% Calm Calm 0.9 mph1.4 kmh 30.04 in1017.3 mb 0.00 in0.0 mm 0.00 in0.0 mm 0.00 in0.0 mm
05:15 AM 29.3°F-1.5°C 25.4°F-3.7°C 85% 0.1 mph NNW0.2 kmh NNW 6.9 mph11.1 kmh 30.04 in1017.3 mb 0.00 in0.0 mm 0.00 in0.0 mm 0.00 in0.0 mm
05:10 AM 29.3°F-1.5°C 25.4°F-3.7°C 85% 0.1 mph NNW0.2 kmh NNW 6.9 mph11.1 kmh 30.04 in1017.3 mb 0.00 in0.0 mm 0.00 in0.0 mm 0.00 in0.0 mm
05:05 AM 29.3°F-1.5°C 25.4°F-3.7°C 85% 0.1 mph NNE0.2 kmh NNE 1.2 mph1.9 kmh 30.04 in1017.3 mb 0.00 in0.0 mm 0.00 in0.0 mm 0.00 in0.0 mm
05:00 AM 29.5°F-1.4°C 25.5°F-3.6°C 85% 0.3 mph N0.5 kmh N 6.9 mph11.1 kmh 30.03 in1016.9 mb 0.00 in0.0 mm 0.00 in0.0 mm 0.00 in0.0 mm
04:55 AM 29.5°F-1.4°C 25.5°F-3.6°C 85% 0.2 mph NNE0.3 kmh NNE 2.0 mph3.2 kmh 30.03 in1016.9 mb 0.00 in0.0 mm 0.00 in0.0 mm 0.00 in0.0 mm
04:50 AM 29.5°F-1.4°C 25.5°F-3.6°C 85% 0.1 mph N0.2 kmh N 6.9 mph11.1 kmh 30.03 in1016.9 mb 0.00 in0.0 mm 0.00 in0.0 mm 0.00 in0.0 mm
04:45 AM 29.5°F-1.4°C 25.5°F-3.6°C 85% 0.5 mph N0.8 kmh N 6.9 mph11.1 kmh 30.03 in1016.9 mb 0.00 in0.0 mm 0.00 in0.0 mm 0.00 in0.0 mm
04:40 AM 29.5°F-1.4°C 25.5°F-3.6°C 85% 0.5 mph NNE0.8 kmh NNE 6.9 mph11.1 kmh 30.03 in1016.9 mb 0.00 in0.0 mm 0.00 in0.0 mm 0.00 in0.0 mm
04:35 AM 29.5°F-1.4°C 25.5°F-3.6°C 85% 0.8 mph NNE1.3 kmh NNE 6.9 mph11.1 kmh 30.04 in1017.3 mb 0.00 in0.0 mm 0.00 in0.0 mm 0.00 in0.0 mm
04:30 AM 29.5°F-1.4°C 25.5°F-3.6°C 85% 0.7 mph NNE1.1 kmh NNE 6.9 mph11.1 kmh 30.03 in1016.9 mb 0.00 in0.0 mm 0.00 in0.0 mm 0.00 in0.0 mm
04:25 AM 29.5°F-1.4°C 25.5°F-3.6°C 85% 0.2 mph NNE0.3 kmh NNE 1.6 mph2.6 kmh 30.03 in1016.9 mb 0.00 in0.0 mm 0.00 in0.0 mm 0.00 in0.0 mm
04:20 AM 29.5°F-1.4°C 25.5°F-3.6°C 85% 0.3 mph NNE0.5 kmh NNE 2.0 mph3.2 kmh 30.03 in1016.9 mb 0.00 in0.0 mm 0.00 in0.0 mm 0.00 in0.0 mm
04:15 AM 29.5°F-1.4°C 25.5°F-3.6°C 85% 0.3 mph NNE0.5 kmh NNE 2.0 mph3.2 kmh 30.04 in1017.3 mb 0.00 in0.0 mm 0.00 in0.0 mm 0.00 in0.0 mm
04:10 AM 29.5°F-1.4°C 25.5°F-3.6°C 85% Calm Calm 0.6 mph1.0 kmh 30.04 in1017.3 mb 0.00 in0.0 mm 0.00 in0.0 mm 0.00 in0.0 mm
04:05 AM 29.5°F-1.4°C 25.5°F-3.6°C 85% 0.1 mph NNE0.2 kmh NNE 1.9 mph3.1 kmh 30.04 in1017.3 mb 0.00 in0.0 mm 0.00 in0.0 mm 0.00 in0.0 mm
04:00 AM 29.5°F-1.4°C 25.5°F-3.6°C 85% 0.6 mph NNE1.0 kmh NNE 3.1 mph5.0 kmh 30.04 in1017.3 mb 0.00 in0.0 mm 0.00 in0.0 mm 0.00 in0.0 mm
03:55 AM 29.5°F-1.4°C 25.5°F-3.6°C 85% 0.5 mph NNE0.8 kmh NNE 3.1 mph5.0 kmh 30.04 in1017.3 mb 0.00 in0.0 mm 0.00 in0.0 mm 0.00 in0.0 mm
03:50 AM 29.5°F-1.4°C 25.5°F-3.6°C 85% 0.5 mph NNE0.8 kmh NNE 2.0 mph3.2 kmh 30.04 in1017.3 mb 0.00 in0.0 mm 0.00 in0.0 mm 0.00 in0.0 mm
03:45 AM 29.5°F-1.4°C 25.5°F-3.6°C 85% 0.7 mph NNE1.1 kmh NNE 2.0 mph3.2 kmh 30.04 in1017.3 mb 0.00 in0.0 mm 0.00 in0.0 mm 0.00 in0.0 mm
03:40 AM 29.5°F-1.4°C 25.5°F-3.6°C 85% 1.2 mph NNE1.9 kmh NNE 6.9 mph11.1 kmh 30.04 in1017.3 mb 0.00 in0.0 mm 0.00 in0.0 mm 0.00 in0.0 mm
03:35 AM 29.5°F-1.4°C 25.5°F-3.6°C 85% 1.4 mph NNE2.3 kmh NNE 6.9 mph11.1 kmh 30.04 in1017.3 mb 0.00 in0.0 mm 0.00 in0.0 mm 0.00 in0.0 mm
03:30 AM 29.7°F-1.3°C 25.7°F-3.5°C 85% 1.8 mph NNE2.9 kmh NNE 6.9 mph11.1 kmh 30.04 in1017.3 mb 0.00 in0.0 mm 0.00 in0.0 mm 0.00 in0.0 mm
03:25 AM 29.7°F-1.3°C 25.7°F-3.5°C 85% 2.1 mph NNE3.4 kmh NNE 6.9 mph11.1 kmh 30.04 in1017.3 mb 0.00 in0.0 mm 0.00 in0.0 mm 0.00 in0.0 mm
03:20 AM 29.7°F-1.3°C 25.7°F-3.5°C 85% 1.8 mph NNE2.9 kmh NNE 6.9 mph11.1 kmh 30.04 in1017.3 mb 0.00 in0.0 mm 0.00 in0.0 mm 0.00 in0.0 mm
03:15 AM 29.7°F-1.3°C 25.7°F-3.5°C 85% 1.2 mph NNE1.9 kmh NNE 6.9 mph11.1 kmh 30.04 in1017.3 mb 0.00 in0.0 mm 0.00 in0.0 mm 0.00 in0.0 mm
03:10 AM 29.7°F-1.3°C 25.7°F-3.5°C 85% 0.4 mph NNE0.6 kmh NNE 2.7 mph4.3 kmh 30.04 in1017.3 mb 0.00 in0.0 mm 0.00 in0.0 mm 0.00 in0.0 mm
03:05 AM 29.7°F-1.3°C 25.7°F-3.5°C 85% 0.2 mph NNE0.3 kmh NNE 1.3 mph2.1 kmh 30.04 in1017.3 mb 0.00 in0.0 mm 0.00 in0.0 mm 0.00 in0.0 mm
03:00 AM 29.7°F-1.3°C 25.7°F-3.5°C 85% 0.4 mph NNE0.6 kmh NNE 2.0 mph3.2 kmh 30.05 in1017.6 mb 0.00 in0.0 mm 0.00 in0.0 mm 0.00 in0.0 mm
02:55 AM 29.7°F-1.3°C 25.7°F-3.5°C 85% 0.4 mph N0.6 kmh N 6.9 mph11.1 kmh 30.05 in1017.6 mb 0.00 in0.0 mm 0.00 in0.0 mm 0.00 in0.0 mm
02:50 AM 29.7°F-1.3°C 25.7°F-3.5°C 85% 1.0 mph N1.6 kmh N 6.9 mph11.1 kmh 30.04 in1017.3 mb 0.00 in0.0 mm 0.00 in0.0 mm 0.00 in0.0 mm
02:45 AM 29.7°F-1.3°C 25.7°F-3.5°C 85% 1.1 mph N1.8 kmh N 6.9 mph11.1 kmh 30.04 in1017.3 mb 0.00 in0.0 mm 0.00 in0.0 mm 0.00 in0.0 mm
02:40 AM 29.8°F-1.2°C 25.9°F-3.4°C 85% 0.8 mph NNE1.3 kmh NNE 6.9 mph11.1 kmh 30.05 in1017.6 mb 0.00 in0.0 mm 0.00 in0.0 mm 0.00 in0.0 mm
02:35 AM 29.8°F-1.2°C 25.9°F-3.4°C 85% 0.5 mph N0.8 kmh N 6.9 mph11.1 kmh 30.04 in1017.3 mb 0.00 in0.0 mm 0.00 in0.0 mm 0.00 in0.0 mm
02:30 AM 29.8°F-1.2°C 25.9°F-3.4°C 85% 0.5 mph N0.8 kmh N 6.9 mph11.1 kmh 30.04 in1017.3 mb 0.00 in0.0 mm 0.00 in0.0 mm 0.00 in0.0 mm
02:25 AM 29.8°F-1.2°C 25.9°F-3.4°C 85% 0.7 mph N1.1 kmh N 6.9 mph11.1 kmh 30.05 in1017.6 mb 0.00 in0.0 mm 0.00 in0.0 mm 0.00 in0.0 mm
02:20 AM 29.8°F-1.2°C 25.9°F-3.4°C 85% 0.3 mph N0.5 kmh N 6.9 mph11.1 kmh 30.05 in1017.6 mb 0.00 in0.0 mm 0.00 in0.0 mm 0.00 in0.0 mm
02:15 AM 29.7°F-1.3°C 25.7°F-3.5°C 85% Calm Calm 1.3 mph2.1 kmh 30.05 in1017.6 mb 0.00 in0.0 mm 0.00 in0.0 mm 0.00 in0.0 mm
02:10 AM 29.7°F-1.3°C 25.7°F-3.5°C 85% 0.2 mph N0.3 kmh N 6.9 mph11.1 kmh 30.04 in1017.3 mb 0.00 in0.0 mm 0.00 in0.0 mm 0.00 in0.0 mm
02:05 AM 29.7°F-1.3°C 25.7°F-3.5°C 85% 0.4 mph N0.6 kmh N 6.9 mph11.1 kmh 30.04 in1017.3 mb 0.00 in0.0 mm 0.00 in0.0 mm 0.00 in0.0 mm
02:00 AM 29.7°F-1.3°C 25.7°F-3.5°C 85% 0.3 mph N0.5 kmh N 6.9 mph11.1 kmh 30.04 in1017.3 mb 0.00 in0.0 mm 0.00 in0.0 mm 0.00 in0.0 mm
01:55 AM 29.7°F-1.3°C 25.7°F-3.5°C 85% 0.4 mph N0.6 kmh N 6.9 mph11.1 kmh 30.04 in1017.3 mb 0.00 in0.0 mm 0.00 in0.0 mm 0.00 in0.0 mm
01:50 AM 29.5°F-1.4°C 25.5°F-3.6°C 85% 0.2 mph N0.3 kmh N 6.9 mph11.1 kmh 30.04 in1017.3 mb 0.00 in0.0 mm 0.00 in0.0 mm 0.00 in0.0 mm
01:45 AM 29.7°F-1.3°C 25.7°F-3.5°C 85% 0.3 mph N0.5 kmh N 6.9 mph11.1 kmh 30.04 in1017.3 mb 0.00 in0.0 mm 0.00 in0.0 mm 0.00 in0.0 mm
01:40 AM 29.7°F-1.3°C 25.7°F-3.5°C 85% 0.4 mph N0.6 kmh N 6.9 mph11.1 kmh 30.04 in1017.3 mb 0.00 in0.0 mm 0.00 in0.0 mm 0.00 in0.0 mm
01:35 AM 29.7°F-1.3°C 25.7°F-3.5°C 85% 0.2 mph NNE0.3 kmh NNE 1.6 mph2.6 kmh 30.04 in1017.3 mb 0.00 in0.0 mm 0.00 in0.0 mm 0.00 in0.0 mm
01:30 AM 29.7°F-1.3°C 25.4°F-3.7°C 85% 0.1 mph NNE0.2 kmh NNE 1.6 mph2.6 kmh 30.04 in1017.3 mb 0.00 in0.0 mm 0.00 in0.0 mm 0.00 in0.0 mm
01:25 AM 29.8°F-1.2°C 25.6°F-3.6°C 84% 0.1 mph NNE0.2 kmh NNE 1.6 mph2.6 kmh 30.04 in1017.3 mb 0.00 in0.0 mm 0.00 in0.0 mm 0.00 in0.0 mm
01:20 AM 29.8°F-1.2°C 25.6°F-3.6°C 84% Calm Calm -- 30.04 in1017.3 mb 0.00 in0.0 mm 0.00 in0.0 mm 0.00 in0.0 mm
01:15 AM 29.8°F-1.2°C 25.6°F-3.6°C 84% 0.1 mph NNW0.2 kmh NNW 6.9 mph11.1 kmh 30.04 in1017.3 mb 0.00 in0.0 mm 0.00 in0.0 mm 0.00 in0.0 mm
01:10 AM 29.8°F-1.2°C 25.6°F-3.6°C 84% 0.1 mph N0.2 kmh N 6.9 mph11.1 kmh 30.04 in1017.3 mb 0.00 in0.0 mm 0.00 in0.0 mm 0.00 in0.0 mm
01:05 AM 29.8°F-1.2°C 25.6°F-3.6°C 84% 0.2 mph NNW0.3 kmh NNW 6.9 mph11.1 kmh 30.04 in1017.3 mb 0.00 in0.0 mm 0.00 in0.0 mm 0.00 in0.0 mm
01:00 AM 29.8°F-1.2°C 25.6°F-3.6°C 84% 0.6 mph NNW1.0 kmh NNW 6.9 mph11.1 kmh 30.03 in1016.9 mb 0.00 in0.0 mm 0.00 in0.0 mm 0.00 in0.0 mm
12:55 AM 29.8°F-1.2°C 25.6°F-3.6°C 84% 0.5 mph N0.8 kmh N 6.9 mph11.1 kmh 30.03 in1016.9 mb 0.00 in0.0 mm 0.00 in0.0 mm 0.00 in0.0 mm
12:50 AM 29.8°F-1.2°C 25.6°F-3.6°C 84% 0.3 mph N0.5 kmh N 6.9 mph11.1 kmh 30.03 in1016.9 mb 0.00 in0.0 mm 0.00 in0.0 mm 0.00 in0.0 mm
12:45 AM 29.8°F-1.2°C 25.6°F-3.6°C 84% 0.8 mph N1.3 kmh N 6.9 mph11.1 kmh 30.03 in1016.9 mb 0.00 in0.0 mm 0.00 in0.0 mm 0.00 in0.0 mm
12:40 AM 29.8°F-1.2°C 25.6°F-3.6°C 84% 0.8 mph NNE1.3 kmh NNE 6.9 mph11.1 kmh 30.03 in1016.9 mb 0.00 in0.0 mm 0.00 in0.0 mm 0.00 in0.0 mm
12:35 AM 29.8°F-1.2°C 25.6°F-3.6°C 84% 0.5 mph NNE0.8 kmh NNE 2.0 mph3.2 kmh 30.04 in1017.3 mb 0.00 in0.0 mm 0.00 in0.0 mm 0.00 in0.0 mm
12:30 AM 29.8°F-1.2°C 25.6°F-3.6°C 84% 0.8 mph N1.3 kmh N 6.9 mph11.1 kmh 30.03 in1016.9 mb 0.00 in0.0 mm 0.00 in0.0 mm 0.00 in0.0 mm
12:25 AM 29.8°F-1.2°C 25.6°F-3.6°C 84% 0.6 mph N1.0 kmh N 6.9 mph11.1 kmh 30.04 in1017.3 mb 0.00 in0.0 mm 0.00 in0.0 mm 0.00 in0.0 mm
12:20 AM 29.8°F-1.2°C 25.6°F-3.6°C 84% 0.5 mph NNE0.8 kmh NNE 1.8 mph2.9 kmh 30.04 in1017.3 mb 0.00 in0.0 mm 0.00 in0.0 mm 0.00 in0.0 mm
12:15 AM 29.8°F-1.2°C 25.6°F-3.6°C 84% 0.4 mph NNE0.6 kmh NNE 2.0 mph3.2 kmh 30.04 in1017.3 mb 0.00 in0.0 mm 0.00 in0.0 mm 0.00 in0.0 mm
12:10 AM 29.8°F-1.2°C 25.6°F-3.6°C 84% 0.6 mph N1.0 kmh N 6.9 mph11.1 kmh 30.03 in1016.9 mb 0.00 in0.0 mm 0.00 in0.0 mm 0.00 in0.0 mm
12:05 AM 29.8°F-1.2°C 25.6°F-3.6°C 84% 0.7 mph N1.1 kmh N 6.9 mph11.1 kmh 30.03 in1016.9 mb 0.00 in0.0 mm 0.00 in0.0 mm 0.00 in0.0 mm
12:00 AM 29.8°F-1.2°C 25.6°F-3.6°C 84% 0.3 mph N0.5 kmh N 6.9 mph11.1 kmh 30.03 in1016.9 mb 0.00 in0.0 mm 0.00 in0.0 mm 0.00 in0.0 mm